• Join FlightAware (Why Join?)
  • Login
  • US Flag 
01:11AM EDT


 

Airport Tracker/Info


-or-


 

Live Flight TrackerFlight Track Log ✈ N906DL ✈ 21-May-2012 ✈ KPHL - KATL

Flight Track Log - Related Links

Times and Time Zones

All times are in EDT time to prevent confusion due to time zone crossing. See the N906DL flight status page for this flight to view local times or setup timezone preferences in your user account.

Time Position Orientation Groundspeed Altitude Reporting Facility
EDT Latitude Longitude Course Direction KTS MPH feet Rate Location/Type
10:11PM 39.8833 -75.2167 88° East 157 181 1,100  Level Philadelphia TRACON
10:12PM 39.8839 -75.1917 68° East 188 216 1,900 1,860 Climbing FAA TRACON SMA TRACON (SMA)
10:12PM 39.8983 -75.1450 59° Northeast 229 264 3,300 2,700 Climbing FAA TRACON SMA TRACON (SMA)
10:13PM 39.9231 -75.0911 North 278 320 5,500 3,120 Climbing FAA TRACON SMA TRACON (SMA)
10:14PM 39.9708 -75.0889 302° West 293 337 7,500 3,000 Climbing FAA TRACON SMA TRACON (SMA)
10:14PM 39.9992 -75.1492 260° West 296 341 9,500 1,860 Climbing FAA TRACON SMA TRACON (SMA)
10:15PM 39.9881 -75.2278 253° West 341 392 10,000 420 Climbing FAA TRACON SMA TRACON (SMA)
10:16PM 39.9678 -75.3133 250° West 375 432 10,100  Climbing FAA TRACON SMA TRACON (SMA)
10:16PM 39.9461 -75.3922 251° West 377 434 10,000 60 Descending FAA TRACON SMA TRACON (SMA)
10:17PM 39.9219 -75.4847 258° West 388 447 10,200 1,200 Climbing FAA TRACON SMA TRACON (SMA)
10:18PM 39.9058 -75.5794 270° West 396 456 11,700 2,700 Climbing FAA TRACON SMA TRACON (SMA)
10:18PM 39.9056 -75.6792 270° West 400 460 13,800 2,640 Climbing FAA TRACON SMA TRACON (SMA)
10:19PM 39.9056 -75.7681 271° West 406 467 15,200 2,460 Climbing FAA TRACON SMA TRACON (SMA)
10:20PM 39.9075 -75.8733 270° West 417 480 17,100 2,040 Climbing FAA TRACON SMA TRACON (SMA)
10:20PM 39.9078 -75.9581 253° West 430 495 18,100 1,980 Climbing FAA TRACON SMA TRACON (SMA)
10:22PM 39.8494 -76.2078 240° Southwest 445 512 21,600 2,100 Climbing Washington Center
10:23PM 39.7864 -76.3475 240° Southwest 445 512 23,400 1,680 Climbing Washington Center
10:24PM 39.7206 -76.4953 239° Southwest 459 528 25,100 1,440 Climbing Washington Center
10:25PM 39.6592 -76.6292 238° Southwest 473 544 26,400 1,560 Climbing Washington Center
10:26PM 39.5911 -76.7683 240° Southwest 473 544 28,200 1,860 Climbing Washington Center
10:27PM 39.5208 -76.9286 231° Southwest 468 539 30,100 1,500 Climbing Washington Center
10:28PM 39.4400 -77.0561 227° Southwest 468 539 31,300 1,080 Climbing Washington Center
10:29PM 39.3531 -77.1778 225° Southwest 468 539 32,300 900 Climbing Washington Center
10:30PM 39.2642 -77.2939 226° Southwest 463 533 33,200 840 Climbing Washington Center
10:31PM 39.1789 -77.4097 230° Southwest 463 533 34,000 360 Climbing Washington Center
10:32PM 39.0978 -77.5361 231° Southwest 458 527 34,000  Level Washington Center
10:33PM 39.0292 -77.6464 232° Southwest 458 527 34,000  Level Washington Center
10:34PM 38.9456 -77.7856 231° Southwest 453 521 34,000  Level Washington Center
10:35PM 38.8725 -77.9033 231° Southwest 465 535 34,000  Level Washington Center
10:36PM 38.7950 -78.0261 230° Southwest 459 528 34,000  Level Washington Center
10:37PM 38.7153 -78.1486 228° Southwest 454 522 34,000  Level Washington Center
10:38PM 38.6314 -78.2678 229° Southwest 454 522 34,000  Level Washington Center
10:39PM 38.5494 -78.3897 224° Southwest 454 522 34,000  Level Washington Center
10:40PM 38.4592 -78.5003 211° Southwest 454 522 34,000  Level Washington Center
10:41PM 38.3531 -78.5808 208° Southwest 449 517 34,000  Level Washington Center
10:42PM 38.2469 -78.6533 207° Southwest 449 517 34,000  Level Washington Center
10:43PM 38.1344 -78.7253 208° Southwest 449 517 34,000  Level Washington Center
10:44PM 38.0114 -78.8072 208° Southwest 456 525 34,000  Level Washington Center
10:45PM 37.9008 -78.8814 211° Southwest 456 525 34,000  Level Washington Center
10:46PM 37.8006 -78.9586 220° Southwest 450 518 34,000  Level Washington Center
10:47PM 37.7083 -79.0567 247° West 444 511 34,000  Level Washington Center
10:48PM 37.6647 -79.1833 272° West 423 487 34,000  Level Washington Center
10:49PM 37.6681 -79.3489 268° West 432 497 34,000  Level Washington Center
10:50PM 37.6636 -79.4903 234° Southwest 432 497 34,000  Level Washington Center
10:51PM 37.5883 -79.6225 223° Southwest 416 479 34,000  Level Washington Center
10:52PM 37.4969 -79.7303 224° Southwest 444 511 34,000  Level Washington Center
10:54PM 37.2783 -79.9989 225° Southwest 445 512 34,000 60 Level Atlanta Center
10:55PM 37.1881 -80.1103 223° Southwest 445 512 34,300 420 Climbing Atlanta Center
10:56PM 37.1058 -80.2081 225° Southwest 454 522 34,900 720 Climbing Atlanta Center
10:57PM 37.0156 -80.3217 227° Southwest 460 529 35,800 540 Climbing Atlanta Center
10:58PM 36.9314 -80.4347 226° Southwest 460 529 36,000 60 Climbing Atlanta Center
10:59PM 36.8428 -80.5500 228° Southwest 453 521 36,000  Level Atlanta Center
11:00PM 36.7506 -80.6758 227° Southwest 458 527 36,000  Level Atlanta Center
11:01PM 36.6639 -80.7936 226° Southwest 458 527 36,000  Level Atlanta Center
11:02PM 36.5753 -80.9083 227° Southwest 458 527 36,000  Level Atlanta Center
11:03PM 36.4986 -81.0094 227° Southwest 458 527 36,000  Level Atlanta Center
11:04PM 36.4117 -81.1236 227° Southwest 458 527 36,000  Level Atlanta Center
11:05PM 36.3247 -81.2400 225° Southwest 458 527 36,000  Level Atlanta Center
11:06PM 36.2353 -81.3514 226° Southwest 463 533 36,000  Level Atlanta Center
11:07PM 36.1481 -81.4647 227° Southwest 458 527 36,000  Level Atlanta Center
11:08PM 36.0608 -81.5806 226° Southwest 458 527 36,000  Level Atlanta Center
11:09PM 35.9711 -81.6961 226° Southwest 458 527 36,000  Level Atlanta Center
11:10PM 35.8817 -81.8117 226° Southwest 458 527 36,000  Level Atlanta Center
11:11PM 35.7939 -81.9242 224° Southwest 458 527 36,000 -540 Level Atlanta Center
11:12PM 35.6997 -82.0364 223° Southwest 465 535 35,000 -540 Descending Atlanta Center
11:13PM 35.5975 -82.1539 224° Southwest 465 535 35,000 -60 Level Atlanta Center
11:14PM 35.5050 -82.2631 223° Southwest 460 529 34,900 -900 Descending Atlanta Center
11:15PM 35.4106 -82.3697 223° Southwest 460 529 33,300 -1,680 Descending Atlanta Center
11:16PM 35.3181 -82.4758 223° Southwest 465 535 31,600 -1,620 Descending Atlanta Center
11:17PM 35.2256 -82.5819 221° Southwest 465 535 30,100 -840 Descending Atlanta Center
11:18PM 35.1431 -82.6697 224° Southwest 460 529 30,000 -60 Descending Atlanta Center
11:19PM 35.0464 -82.7831 222° Southwest 465 535 30,000 -420 Level Atlanta Center
11:20PM 34.9514 -82.8858 221° Southwest 465 535 29,200 -1,200 Descending Atlanta Center
11:21PM 34.8439 -83.0011 223° Southwest 470 541 27,700 -1,440 Descending Atlanta Center
11:22PM 34.7508 -83.1083 224° Southwest 465 535 26,300 -1,440 Descending Atlanta Center
11:23PM 34.6597 -83.2156 222° Southwest 465 535 24,900 -2,040 Descending Atlanta Center
11:24PM 34.5664 -83.3172 223° Southwest 458 527 22,300 -2,760 Descending Atlanta Center
11:25PM 34.4794 -83.4139 222° Southwest 437 503 19,400 -2,880 Descending Atlanta Center
11:26PM 34.3942 -83.5078 222° Southwest 422 486 16,600 -2,400 Descending Atlanta Center
11:27PM 34.3131 -83.5961 223° Southwest 404 465 14,600 -2,100 Descending Atlanta Center
11:28PM 34.2444 -83.6744 221° Southwest 391 450 12,500 -1,320 Descending Atlanta Center
11:29PM 34.1656 -83.7575 223° Southwest 386 444 12,000 -300 Descending Atlanta Center
11:30PM 34.0906 -83.8406 221° Southwest 375 432 12,000 -300 Level Atlanta Center
11:31PM 34.0333 -83.9000 212° Southwest 358 412 11,600 -900 Descending Atlanta TRACON
11:32PM 33.9667 -83.9500 206° Southwest 315 362 10,600 -960 Descending Atlanta TRACON
11:33PM 33.8833 -84.0000 212° Southwest 282 325 9,700 -1,200 Descending Atlanta TRACON
11:34PM 33.8167 -84.0500 220° Southwest 276 318 8,100 -1,740 Descending Atlanta TRACON
11:35PM 33.7667 -84.1000 228° Southwest 257 296 6,400 -1,980 Descending Atlanta TRACON
11:36PM 33.7167 -84.1667 231° Southwest 256 295 4,400 -1,380 Descending Atlanta TRACON
11:37PM 33.6833 -84.2167 231° Southwest 232 267 3,800 -480 Descending Atlanta TRACON
11:38PM 33.6500 -84.2667 270° West 192 221 3,500 -780 Descending Atlanta TRACON
11:39PM 33.6500 -84.3333 270° West 185 213 2,300 -1,020 Descending Atlanta TRACON
11:40PM 33.6500 -84.3833 239° Southwest 139 160 1,500 -840 Descending Atlanta TRACON
11:47PM 33.6333 -84.4167 239° Southwest  Level FlightAware Approximate